sensor_id;sensor_type;location;lat;lon;timestamp;temperature;humidity
37342;DHT22;58643;49.052;8.518;2022-08-19T00:02:04;20.60;99.90
37342;DHT22;58643;49.052;8.518;2022-08-19T00:04:32;20.50;99.90
37342;DHT22;58643;49.052;8.518;2022-08-19T00:06:59;20.50;99.90
37342;DHT22;58643;49.052;8.518;2022-08-19T00:09:25;20.30;99.90
37342;DHT22;58643;49.052;8.518;2022-08-19T00:11:52;20.30;99.90
37342;DHT22;58643;49.052;8.518;2022-08-19T00:14:21;20.30;99.90
37342;DHT22;58643;49.052;8.518;2022-08-19T00:16:48;20.40;99.90
37342;DHT22;58643;49.052;8.518;2022-08-19T00:19:14;20.40;99.90
37342;DHT22;58643;49.052;8.518;2022-08-19T00:21:41;20.70;99.90
37342;DHT22;58643;49.052;8.518;2022-08-19T00:24:08;20.60;99.90
37342;DHT22;58643;49.052;8.518;2022-08-19T00:26:35;22.10;99.90
37342;DHT22;58643;49.052;8.518;2022-08-19T00:29:01;20.30;99.90
37342;DHT22;58643;49.052;8.518;2022-08-19T00:31:27;20.40;99.90
37342;DHT22;58643;49.052;8.518;2022-08-19T00:33:53;20.50;99.90
37342;DHT22;58643;49.052;8.518;2022-08-19T00:36:19;20.30;99.90
37342;DHT22;58643;49.052;8.518;2022-08-19T00:38:45;20.20;99.90
37342;DHT22;58643;49.052;8.518;2022-08-19T00:41:17;20.20;99.90
37342;DHT22;58643;49.052;8.518;2022-08-19T00:44:04;20.30;99.90
37342;DHT22;58643;49.052;8.518;2022-08-19T00:46:31;20.30;99.90
37342;DHT22;58643;49.052;8.518;2022-08-19T00:48:59;20.30;99.90
37342;DHT22;58643;49.052;8.518;2022-08-19T00:51:27;20.50;99.90
37342;DHT22;58643;49.052;8.518;2022-08-19T00:53:55;20.30;99.90
37342;DHT22;58643;49.052;8.518;2022-08-19T00:56:23;20.40;99.90
37342;DHT22;58643;49.052;8.518;2022-08-19T00:58:49;20.40;99.90
37342;DHT22;58643;49.052;8.518;2022-08-19T01:01:15;20.40;99.90
37342;DHT22;58643;49.052;8.518;2022-08-19T01:03:41;20.40;99.90
37342;DHT22;58643;49.052;8.518;2022-08-19T01:06:07;20.50;99.90
37342;DHT22;58643;49.052;8.518;2022-08-19T01:08:33;20.90;99.90
37342;DHT22;58643;49.052;8.518;2022-08-19T01:10:59;20.70;99.90
37342;DHT22;58643;49.052;8.518;2022-08-19T01:13:29;20.70;99.90
37342;DHT22;58643;49.052;8.518;2022-08-19T01:16:05;20.50;99.90
37342;DHT22;58643;49.052;8.518;2022-08-19T01:18:35;20.40;99.90
37342;DHT22;58643;49.052;8.518;2022-08-19T01:21:11;20.80;99.90
37342;DHT22;58643;49.052;8.518;2022-08-19T01:23:42;20.50;99.90
37342;DHT22;58643;49.052;8.518;2022-08-19T01:26:14;20.40;99.90
37342;DHT22;58643;49.052;8.518;2022-08-19T01:28:42;20.40;99.90
37342;DHT22;58643;49.052;8.518;2022-08-19T01:31:15;20.30;99.90
37342;DHT22;58643;49.052;8.518;2022-08-19T01:33:41;20.30;99.90
37342;DHT22;58643;49.052;8.518;2022-08-19T01:36:11;20.30;99.90
37342;DHT22;58643;49.052;8.518;2022-08-19T01:38:39;20.30;99.90
37342;DHT22;58643;49.052;8.518;2022-08-19T01:41:05;20.50;99.90
37342;DHT22;58643;49.052;8.518;2022-08-19T01:43:32;20.50;99.90
37342;DHT22;58643;49.052;8.518;2022-08-19T01:45:58;20.60;99.90
37342;DHT22;58643;49.052;8.518;2022-08-19T01:48:24;20.60;99.90
37342;DHT22;58643;49.052;8.518;2022-08-19T01:50:49;20.50;99.90
37342;DHT22;58643;49.052;8.518;2022-08-19T01:53:15;20.60;99.90
37342;DHT22;58643;49.052;8.518;2022-08-19T01:55:42;20.80;99.90
37342;DHT22;58643;49.052;8.518;2022-08-19T01:58:40;20.50;99.90
37342;DHT22;58643;49.052;8.518;2022-08-19T02:01:07;20.50;99.90
37342;DHT22;58643;49.052;8.518;2022-08-19T02:03:33;20.50;99.90
37342;DHT22;58643;49.052;8.518;2022-08-19T02:06:00;20.60;99.90
37342;DHT22;58643;49.052;8.518;2022-08-19T02:08:32;21.70;99.90
37342;DHT22;58643;49.052;8.518;2022-08-19T02:10:58;20.60;99.90
37342;DHT22;58643;49.052;8.518;2022-08-19T02:13:24;20.60;99.90
37342;DHT22;58643;49.052;8.518;2022-08-19T02:15:50;20.70;99.90
37342;DHT22;58643;49.052;8.518;2022-08-19T02:18:16;20.60;99.90
37342;DHT22;58643;49.052;8.518;2022-08-19T02:20:43;20.60;99.90
37342;DHT22;58643;49.052;8.518;2022-08-19T02:23:10;20.60;99.90
37342;DHT22;58643;49.052;8.518;2022-08-19T02:25:36;20.90;99.90
37342;DHT22;58643;49.052;8.518;2022-08-19T02:28:02;20.70;99.90
37342;DHT22;58643;49.052;8.518;2022-08-19T02:30:28;20.70;99.90
37342;DHT22;58643;49.052;8.518;2022-08-19T02:32:54;20.90;99.90
37342;DHT22;58643;49.052;8.518;2022-08-19T02:35:20;20.50;99.90
37342;DHT22;58643;49.052;8.518;2022-08-19T02:37:45;20.40;99.90
37342;DHT22;58643;49.052;8.518;2022-08-19T02:40:31;22.40;99.90
37342;DHT22;58643;49.052;8.518;2022-08-19T02:43:01;20.60;99.90
37342;DHT22;58643;49.052;8.518;2022-08-19T02:45:31;20.30;99.90
37342;DHT22;58643;49.052;8.518;2022-08-19T02:47:57;20.20;99.90
37342;DHT22;58643;49.052;8.518;2022-08-19T02:50:22;22.30;99.90
37342;DHT22;58643;49.052;8.518;2022-08-19T02:52:48;20.30;99.90
37342;DHT22;58643;49.052;8.518;2022-08-19T02:55:14;20.30;99.90
37342;DHT22;58643;49.052;8.518;2022-08-19T02:57:40;20.40;99.90
37342;DHT22;58643;49.052;8.518;2022-08-19T03:00:08;20.40;99.90
37342;DHT22;58643;49.052;8.518;2022-08-19T03:02:36;20.30;99.90
37342;DHT22;58643;49.052;8.518;2022-08-19T03:05:03;20.20;99.90
37342;DHT22;58643;49.052;8.518;2022-08-19T03:07:28;20.20;99.90
37342;DHT22;58643;49.052;8.518;2022-08-19T03:09:54;20.10;99.90
37342;DHT22;58643;49.052;8.518;2022-08-19T03:12:19;20.20;99.90
37342;DHT22;58643;49.052;8.518;2022-08-19T03:14:45;20.20;99.90
37342;DHT22;58643;49.052;8.518;2022-08-19T03:17:11;20.20;99.90
37342;DHT22;58643;49.052;8.518;2022-08-19T03:19:38;20.70;99.90
37342;DHT22;58643;49.052;8.518;2022-08-19T03:22:04;20.00;99.90
37342;DHT22;58643;49.052;8.518;2022-08-19T03:24:30;20.10;99.90
37342;DHT22;58643;49.052;8.518;2022-08-19T03:26:56;20.10;99.90
37342;DHT22;58643;49.052;8.518;2022-08-19T03:29:29;20.10;99.90
37342;DHT22;58643;49.052;8.518;2022-08-19T03:32:02;20.10;99.90
37342;DHT22;58643;49.052;8.518;2022-08-19T03:34:30;20.10;99.90
37342;DHT22;58643;49.052;8.518;2022-08-19T03:36:59;20.00;99.90
37342;DHT22;58643;49.052;8.518;2022-08-19T03:39:28;19.90;99.90
37342;DHT22;58643;49.052;8.518;2022-08-19T03:41:54;19.90;99.90
37342;DHT22;58643;49.052;8.518;2022-08-19T03:44:25;20.10;99.90
37342;DHT22;58643;49.052;8.518;2022-08-19T03:46:54;21.10;99.90
37342;DHT22;58643;49.052;8.518;2022-08-19T03:49:21;19.80;99.90
37342;DHT22;58643;49.052;8.518;2022-08-19T03:51:48;19.90;99.90
37342;DHT22;58643;49.052;8.518;2022-08-19T03:54:15;19.90;99.90
37342;DHT22;58643;49.052;8.518;2022-08-19T03:56:43;20.00;99.90
37342;DHT22;58643;49.052;8.518;2022-08-19T03:59:11;20.00;99.90
37342;DHT22;58643;49.052;8.518;2022-08-19T04:01:38;19.90;99.90
37342;DHT22;58643;49.052;8.518;2022-08-19T04:04:04;19.90;99.90
37342;DHT22;58643;49.052;8.518;2022-08-19T04:06:32;19.90;99.90
37342;DHT22;58643;49.052;8.518;2022-08-19T04:08:59;20.00;99.90
37342;DHT22;58643;49.052;8.518;2022-08-19T04:11:33;20.20;99.90
37342;DHT22;58643;49.052;8.518;2022-08-19T04:13:59;19.80;99.90
37342;DHT22;58643;49.052;8.518;2022-08-19T04:16:27;19.90;99.90
37342;DHT22;58643;49.052;8.518;2022-08-19T04:18:59;19.80;99.90
37342;DHT22;58643;49.052;8.518;2022-08-19T04:21:27;19.80;99.90
37342;DHT22;58643;49.052;8.518;2022-08-19T04:23:53;19.70;99.90
37342;DHT22;58643;49.052;8.518;2022-08-19T04:26:28;19.70;99.90
37342;DHT22;58643;49.052;8.518;2022-08-19T04:28:54;19.70;99.90
37342;DHT22;58643;49.052;8.518;2022-08-19T04:31:22;19.80;99.90
37342;DHT22;58643;49.052;8.518;2022-08-19T04:33:52;19.70;99.90
37342;DHT22;58643;49.052;8.518;2022-08-19T04:36:23;19.90;99.90
37342;DHT22;58643;49.052;8.518;2022-08-19T04:38:50;19.70;99.90
37342;DHT22;58643;49.052;8.518;2022-08-19T04:41:18;19.80;99.90
37342;DHT22;58643;49.052;8.518;2022-08-19T04:44:02;19.90;99.90
37342;DHT22;58643;49.052;8.518;2022-08-19T04:46:29;19.90;99.90
37342;DHT22;58643;49.052;8.518;2022-08-19T04:48:56;20.00;99.90
37342;DHT22;58643;49.052;8.518;2022-08-19T04:51:23;20.10;99.90
37342;DHT22;58643;49.052;8.518;2022-08-19T04:53:49;20.10;99.90
37342;DHT22;58643;49.052;8.518;2022-08-19T04:56:16;20.10;99.90
37342;DHT22;58643;49.052;8.518;2022-08-19T04:58:43;20.20;99.90
37342;DHT22;58643;49.052;8.518;2022-08-19T05:01:12;19.90;99.90
37342;DHT22;58643;49.052;8.518;2022-08-19T05:03:38;20.10;99.90
37342;DHT22;58643;49.052;8.518;2022-08-19T05:06:11;20.50;99.90
37342;DHT22;58643;49.052;8.518;2022-08-19T05:08:39;20.30;99.90
37342;DHT22;58643;49.052;8.518;2022-08-19T05:11:20;20.40;99.90
37342;DHT22;58643;49.052;8.518;2022-08-19T05:13:47;20.80;99.90
37342;DHT22;58643;49.052;8.518;2022-08-19T05:16:15;20.50;99.90
37342;DHT22;58643;49.052;8.518;2022-08-19T05:18:43;20.50;99.90
37342;DHT22;58643;49.052;8.518;2022-08-19T05:21:28;20.50;99.90
37342;DHT22;58643;49.052;8.518;2022-08-19T05:24:13;21.70;99.90
37342;DHT22;58643;49.052;8.518;2022-08-19T05:26:43;20.60;99.90
37342;DHT22;58643;49.052;8.518;2022-08-19T05:29:09;20.60;99.90
37342;DHT22;58643;49.052;8.518;2022-08-19T05:31:36;21.50;99.90
37342;DHT22;58643;49.052;8.518;2022-08-19T05:34:04;20.70;99.90
37342;DHT22;58643;49.052;8.518;2022-08-19T05:36:37;20.80;99.90
37342;DHT22;58643;49.052;8.518;2022-08-19T05:39:12;20.80;99.90
37342;DHT22;58643;49.052;8.518;2022-08-19T05:41:46;20.90;99.90
37342;DHT22;58643;49.052;8.518;2022-08-19T05:44:12;20.90;99.90
37342;DHT22;58643;49.052;8.518;2022-08-19T05:46:38;20.90;99.90
37342;DHT22;58643;49.052;8.518;2022-08-19T05:49:05;21.00;99.90
37342;DHT22;58643;49.052;8.518;2022-08-19T05:51:32;21.40;99.90
37342;DHT22;58643;49.052;8.518;2022-08-19T05:53:59;21.00;99.90
37342;DHT22;58643;49.052;8.518;2022-08-19T05:56:25;21.00;99.90
37342;DHT22;58643;49.052;8.518;2022-08-19T05:58:51;21.10;99.90
37342;DHT22;58643;49.052;8.518;2022-08-19T06:01:20;21.30;99.90
37342;DHT22;58643;49.052;8.518;2022-08-19T06:03:46;21.00;99.90
37342;DHT22;58643;49.052;8.518;2022-08-19T06:06:14;21.40;99.90
37342;DHT22;58643;49.052;8.518;2022-08-19T06:08:41;21.00;99.90
37342;DHT22;58643;49.052;8.518;2022-08-19T06:13:47;21.10;99.90
37342;DHT22;58643;49.052;8.518;2022-08-19T06:16:17;21.40;99.90
37342;DHT22;58643;49.052;8.518;2022-08-19T06:18:46;21.10;99.90
37342;DHT22;58643;49.052;8.518;2022-08-19T06:21:12;21.30;99.90
37342;DHT22;58643;49.052;8.518;2022-08-19T06:23:38;21.30;99.90
37342;DHT22;58643;49.052;8.518;2022-08-19T06:26:04;21.50;99.90
37342;DHT22;58643;49.052;8.518;2022-08-19T06:28:30;21.40;99.90
37342;DHT22;58643;49.052;8.518;2022-08-19T06:30:56;21.40;99.90
37342;DHT22;58643;49.052;8.518;2022-08-19T06:33:21;21.50;99.90
37342;DHT22;58643;49.052;8.518;2022-08-19T06:35:47;21.50;99.90
37342;DHT22;58643;49.052;8.518;2022-08-19T06:38:12;21.70;99.90
37342;DHT22;58643;49.052;8.518;2022-08-19T06:40:38;21.80;99.90
37342;DHT22;58643;49.052;8.518;2022-08-19T06:43:04;22.10;99.90
37342;DHT22;58643;49.052;8.518;2022-08-19T06:45:29;21.90;99.90
37342;DHT22;58643;49.052;8.518;2022-08-19T06:47:55;22.00;99.90
37342;DHT22;58643;49.052;8.518;2022-08-19T06:50:24;21.90;99.90
37342;DHT22;58643;49.052;8.518;2022-08-19T06:52:50;22.10;99.90
37342;DHT22;58643;49.052;8.518;2022-08-19T06:55:16;22.30;99.90
37342;DHT22;58643;49.052;8.518;2022-08-19T06:57:42;22.30;99.90
37342;DHT22;58643;49.052;8.518;2022-08-19T07:00:09;22.40;99.90
37342;DHT22;58643;49.052;8.518;2022-08-19T07:02:41;22.50;99.90
37342;DHT22;58643;49.052;8.518;2022-08-19T07:05:07;22.70;99.90
37342;DHT22;58643;49.052;8.518;2022-08-19T07:07:33;22.80;99.90
37342;DHT22;58643;49.052;8.518;2022-08-19T07:10:01;22.80;99.90
37342;DHT22;58643;49.052;8.518;2022-08-19T07:12:30;22.90;99.90
37342;DHT22;58643;49.052;8.518;2022-08-19T07:14:59;23.00;99.90
37342;DHT22;58643;49.052;8.518;2022-08-19T07:17:26;23.10;99.90
37342;DHT22;58643;49.052;8.518;2022-08-19T07:19:52;23.00;99.90
37342;DHT22;58643;49.052;8.518;2022-08-19T07:22:18;22.90;99.90
37342;DHT22;58643;49.052;8.518;2022-08-19T07:24:45;23.10;99.90
37342;DHT22;58643;49.052;8.518;2022-08-19T07:27:14;23.20;99.90
37342;DHT22;58643;49.052;8.518;2022-08-19T07:29:39;23.30;99.90
37342;DHT22;58643;49.052;8.518;2022-08-19T07:32:05;23.40;99.90
37342;DHT22;58643;49.052;8.518;2022-08-19T07:34:32;23.50;99.90
37342;DHT22;58643;49.052;8.518;2022-08-19T07:37:04;23.60;99.90
37342;DHT22;58643;49.052;8.518;2022-08-19T07:39:32;23.60;99.90
37342;DHT22;58643;49.052;8.518;2022-08-19T07:42:00;23.70;99.90
37342;DHT22;58643;49.052;8.518;2022-08-19T07:44:26;23.90;99.90
37342;DHT22;58643;49.052;8.518;2022-08-19T07:46:55;24.10;99.90
37342;DHT22;58643;49.052;8.518;2022-08-19T07:49:21;24.30;99.90
37342;DHT22;58643;49.052;8.518;2022-08-19T07:51:57;24.40;99.10
37342;DHT22;58643;49.052;8.518;2022-08-19T07:54:26;24.50;98.40
37342;DHT22;58643;49.052;8.518;2022-08-19T07:56:53;24.40;99.10
37342;DHT22;58643;49.052;8.518;2022-08-19T07:59:20;24.40;99.10
37342;DHT22;58643;49.052;8.518;2022-08-19T08:01:46;24.10;99.40
37342;DHT22;58643;49.052;8.518;2022-08-19T08:04:12;24.10;99.70
37342;DHT22;58643;49.052;8.518;2022-08-19T08:06:57;24.10;99.10
37342;DHT22;58643;49.052;8.518;2022-08-19T08:09:43;24.20;99.20
37342;DHT22;58643;49.052;8.518;2022-08-19T08:12:10;24.40;99.10
37342;DHT22;58643;49.052;8.518;2022-08-19T08:14:40;24.40;99.20
37342;DHT22;58643;49.052;8.518;2022-08-19T08:17:07;24.60;99.60
37342;DHT22;58643;49.052;8.518;2022-08-19T08:19:34;24.90;98.30
37342;DHT22;58643;49.052;8.518;2022-08-19T08:22:00;25.00;97.60
37342;DHT22;58643;49.052;8.518;2022-08-19T08:24:29;25.10;97.60
37342;DHT22;58643;49.052;8.518;2022-08-19T08:26:58;25.20;96.80
37342;DHT22;58643;49.052;8.518;2022-08-19T08:29:29;25.60;96.20
37342;DHT22;58643;49.052;8.518;2022-08-19T08:31:55;25.70;96.00
37342;DHT22;58643;49.052;8.518;2022-08-19T08:34:21;26.20;95.80
37342;DHT22;58643;49.052;8.518;2022-08-19T08:36:47;26.20;94.60
37342;DHT22;58643;49.052;8.518;2022-08-19T08:39:15;26.00;94.90
37342;DHT22;58643;49.052;8.518;2022-08-19T08:41:59;26.40;94.20
37342;DHT22;58643;49.052;8.518;2022-08-19T08:47:04;26.40;93.80
37342;DHT22;58643;49.052;8.518;2022-08-19T08:49:45;26.30;93.10
37342;DHT22;58643;49.052;8.518;2022-08-19T08:52:22;26.40;92.50
37342;DHT22;58643;49.052;8.518;2022-08-19T08:54:53;26.60;92.00
37342;DHT22;58643;49.052;8.518;2022-08-19T09:00:38;27.20;91.20
37342;DHT22;58643;49.052;8.518;2022-08-19T09:03:12;27.00;91.60
37342;DHT22;58643;49.052;8.518;2022-08-19T09:06:03;26.60;91.20
37342;DHT22;58643;49.052;8.518;2022-08-19T09:08:58;26.60;91.40
37342;DHT22;58643;49.052;8.518;2022-08-19T09:14:32;26.60;91.40
37342;DHT22;58643;49.052;8.518;2022-08-19T09:16:58;26.50;91.70
37342;DHT22;58643;49.052;8.518;2022-08-19T09:19:25;26.50;91.40
37342;DHT22;58643;49.052;8.518;2022-08-19T09:21:51;26.60;91.50
37342;DHT22;58643;49.052;8.518;2022-08-19T09:24:16;27.10;90.80
37342;DHT22;58643;49.052;8.518;2022-08-19T09:26:42;27.00;91.20
37342;DHT22;58643;49.052;8.518;2022-08-19T09:29:09;27.40;90.50
37342;DHT22;58643;49.052;8.518;2022-08-19T09:31:35;27.40;89.60
37342;DHT22;58643;49.052;8.518;2022-08-19T09:34:01;27.20;89.90
37342;DHT22;58643;49.052;8.518;2022-08-19T09:36:30;27.10;89.30
37342;DHT22;58643;49.052;8.518;2022-08-19T09:38:58;27.00;90.00
37342;DHT22;58643;49.052;8.518;2022-08-19T09:41:25;27.30;89.90
37342;DHT22;58643;49.052;8.518;2022-08-19T09:43:53;28.00;88.00
37342;DHT22;58643;49.052;8.518;2022-08-19T09:46:21;27.80;87.10
37342;DHT22;58643;49.052;8.518;2022-08-19T09:48:47;27.40;87.80
37342;DHT22;58643;49.052;8.518;2022-08-19T09:51:20;27.20;88.20
37342;DHT22;58643;49.052;8.518;2022-08-19T09:53:47;27.20;87.30
37342;DHT22;58643;49.052;8.518;2022-08-19T09:56:17;27.30;87.10
37342;DHT22;58643;49.052;8.518;2022-08-19T09:58:43;27.50;86.60
37342;DHT22;58643;49.052;8.518;2022-08-19T10:01:09;27.70;86.10
37342;DHT22;58643;49.052;8.518;2022-08-19T10:03:36;28.40;83.90
37342;DHT22;58643;49.052;8.518;2022-08-19T10:06:04;29.50;79.50
37342;DHT22;58643;49.052;8.518;2022-08-19T10:08:35;30.20;77.80
37342;DHT22;58643;49.052;8.518;2022-08-19T10:11:01;30.70;76.10
37342;DHT22;58643;49.052;8.518;2022-08-19T10:13:29;30.40;76.00
37342;DHT22;58643;49.052;8.518;2022-08-19T10:16:01;29.50;76.90
37342;DHT22;58643;49.052;8.518;2022-08-19T10:18:27;29.30;78.20
37342;DHT22;58643;49.052;8.518;2022-08-19T10:21:09;29.60;76.80
37342;DHT22;58643;49.052;8.518;2022-08-19T10:23:37;30.10;73.80
37342;DHT22;58643;49.052;8.518;2022-08-19T10:26:05;30.70;71.50
37342;DHT22;58643;49.052;8.518;2022-08-19T10:28:35;30.70;71.00
37342;DHT22;58643;49.052;8.518;2022-08-19T10:31:25;30.50;72.10
37342;DHT22;58643;49.052;8.518;2022-08-19T10:33:51;31.50;68.50
37342;DHT22;58643;49.052;8.518;2022-08-19T10:36:28;30.50;70.50
37342;DHT22;58643;49.052;8.518;2022-08-19T10:38:57;29.50;71.70
37342;DHT22;58643;49.052;8.518;2022-08-19T10:41:26;28.80;74.80
37342;DHT22;58643;49.052;8.518;2022-08-19T10:43:53;28.90;74.80
37342;DHT22;58643;49.052;8.518;2022-08-19T10:46:21;29.40;73.40
37342;DHT22;58643;49.052;8.518;2022-08-19T10:48:47;29.90;72.00
37342;DHT22;58643;49.052;8.518;2022-08-19T10:51:13;29.80;71.20
37342;DHT22;58643;49.052;8.518;2022-08-19T10:53:58;30.10;70.00
37342;DHT22;58643;49.052;8.518;2022-08-19T10:56:24;30.00;70.40
37342;DHT22;58643;49.052;8.518;2022-08-19T10:59:09;30.30;69.20
37342;DHT22;58643;49.052;8.518;2022-08-19T11:01:35;31.10;68.20
37342;DHT22;58643;49.052;8.518;2022-08-19T11:04:03;31.20;66.10
37342;DHT22;58643;49.052;8.518;2022-08-19T11:06:31;30.80;66.90
37342;DHT22;58643;49.052;8.518;2022-08-19T11:08:57;30.20;67.80
37342;DHT22;58643;49.052;8.518;2022-08-19T11:11:25;30.60;67.20
37342;DHT22;58643;49.052;8.518;2022-08-19T11:13:51;30.20;67.20
37342;DHT22;58643;49.052;8.518;2022-08-19T11:16:19;30.00;67.50
37342;DHT22;58643;49.052;8.518;2022-08-19T11:18:48;29.90;68.40
37342;DHT22;58643;49.052;8.518;2022-08-19T11:23:45;30.40;66.50
37342;DHT22;58643;49.052;8.518;2022-08-19T11:26:12;29.60;76.50
37342;DHT22;58643;49.052;8.518;2022-08-19T11:28:38;29.40;68.90
37342;DHT22;58643;49.052;8.518;2022-08-19T11:31:09;29.60;68.30
37342;DHT22;58643;49.052;8.518;2022-08-19T11:33:35;29.90;66.70
37342;DHT22;58643;49.052;8.518;2022-08-19T11:36:00;30.50;64.60
37342;DHT22;58643;49.052;8.518;2022-08-19T11:38:27;31.40;63.40
37342;DHT22;58643;49.052;8.518;2022-08-19T11:41:00;31.50;60.90
37342;DHT22;58643;49.052;8.518;2022-08-19T11:43:26;30.50;63.00
37342;DHT22;58643;49.052;8.518;2022-08-19T11:45:53;30.40;63.90
37342;DHT22;58643;49.052;8.518;2022-08-19T11:48:19;30.50;64.20
37342;DHT22;58643;49.052;8.518;2022-08-19T11:50:51;31.10;62.40
37342;DHT22;58643;49.052;8.518;2022-08-19T11:53:19;31.50;61.10
37342;DHT22;58643;49.052;8.518;2022-08-19T11:55:48;31.50;61.60
37342;DHT22;58643;49.052;8.518;2022-08-19T11:58:16;31.30;60.30
37342;DHT22;58643;49.052;8.518;2022-08-19T12:00:42;31.50;60.50
37342;DHT22;58643;49.052;8.518;2022-08-19T12:03:10;31.20;61.50
37342;DHT22;58643;49.052;8.518;2022-08-19T12:05:37;31.10;61.00
37342;DHT22;58643;49.052;8.518;2022-08-19T12:08:03;31.10;62.40
37342;DHT22;58643;49.052;8.518;2022-08-19T12:10:28;30.50;61.60
37342;DHT22;58643;49.052;8.518;2022-08-19T12:12:54;31.10;61.00
37342;DHT22;58643;49.052;8.518;2022-08-19T12:15:20;31.10;61.40
37342;DHT22;58643;49.052;8.518;2022-08-19T12:17:45;31.40;60.20
37342;DHT22;58643;49.052;8.518;2022-08-19T12:20:12;31.50;60.40
37342;DHT22;58643;49.052;8.518;2022-08-19T12:22:39;31.20;60.50
37342;DHT22;58643;49.052;8.518;2022-08-19T12:25:07;30.90;60.30
37342;DHT22;58643;49.052;8.518;2022-08-19T12:27:33;30.60;60.80
37342;DHT22;58643;49.052;8.518;2022-08-19T12:30:01;30.20;61.90
37342;DHT22;58643;49.052;8.518;2022-08-19T12:32:27;30.00;63.10
37342;DHT22;58643;49.052;8.518;2022-08-19T12:34:53;29.70;63.40
37342;DHT22;58643;49.052;8.518;2022-08-19T12:37:19;29.50;65.10
37342;DHT22;58643;49.052;8.518;2022-08-19T12:39:45;29.00;65.90
37342;DHT22;58643;49.052;8.518;2022-08-19T12:42:12;28.70;66.80
37342;DHT22;58643;49.052;8.518;2022-08-19T12:44:40;28.70;67.70
37342;DHT22;58643;49.052;8.518;2022-08-19T12:47:07;28.90;67.30
37342;DHT22;58643;49.052;8.518;2022-08-19T12:49:34;29.60;66.80
37342;DHT22;58643;49.052;8.518;2022-08-19T12:52:03;28.60;65.90
37342;DHT22;58643;49.052;8.518;2022-08-19T12:54:29;28.70;65.80
37342;DHT22;58643;49.052;8.518;2022-08-19T12:56:59;28.80;65.90
37342;DHT22;58643;49.052;8.518;2022-08-19T12:59:25;29.00;65.70
37342;DHT22;58643;49.052;8.518;2022-08-19T13:01:51;30.00;63.80
37342;DHT22;58643;49.052;8.518;2022-08-19T13:04:17;31.10;61.30
37342;DHT22;58643;49.052;8.518;2022-08-19T13:06:43;32.10;59.50
37342;DHT22;58643;49.052;8.518;2022-08-19T13:09:09;33.10;57.80
37342;DHT22;58643;49.052;8.518;2022-08-19T13:11:38;33.30;54.20
37342;DHT22;58643;49.052;8.518;2022-08-19T13:14:05;33.10;56.00
37342;DHT22;58643;49.052;8.518;2022-08-19T13:16:31;32.00;56.70
37342;DHT22;58643;49.052;8.518;2022-08-19T13:18:57;31.10;58.20
37342;DHT22;58643;49.052;8.518;2022-08-19T13:21:26;30.20;60.40
37342;DHT22;58643;49.052;8.518;2022-08-19T13:23:53;29.70;61.50
37342;DHT22;58643;49.052;8.518;2022-08-19T13:26:19;29.20;63.00
37342;DHT22;58643;49.052;8.518;2022-08-19T13:28:45;28.90;63.30
37342;DHT22;58643;49.052;8.518;2022-08-19T13:31:32;28.80;63.10
37342;DHT22;58643;49.052;8.518;2022-08-19T13:34:18;28.80;64.20
37342;DHT22;58643;49.052;8.518;2022-08-19T13:36:44;28.80;63.60
37342;DHT22;58643;49.052;8.518;2022-08-19T13:39:10;28.70;64.10
37342;DHT22;58643;49.052;8.518;2022-08-19T13:41:37;28.80;63.30
37342;DHT22;58643;49.052;8.518;2022-08-19T13:44:04;29.10;62.40
37342;DHT22;58643;49.052;8.518;2022-08-19T13:46:30;29.20;61.90
37342;DHT22;58643;49.052;8.518;2022-08-19T13:48:56;29.50;61.40
37342;DHT22;58643;49.052;8.518;2022-08-19T13:51:22;30.00;61.00
37342;DHT22;58643;49.052;8.518;2022-08-19T13:53:48;32.00;58.60
37342;DHT22;58643;49.052;8.518;2022-08-19T13:56:16;33.30;54.70
37342;DHT22;58643;49.052;8.518;2022-08-19T13:58:42;34.50;53.40
37342;DHT22;58643;49.052;8.518;2022-08-19T14:01:09;35.20;51.00
37342;DHT22;58643;49.052;8.518;2022-08-19T14:03:35;35.90;49.40
37342;DHT22;58643;49.052;8.518;2022-08-19T14:06:01;36.60;48.70
37342;DHT22;58643;49.052;8.518;2022-08-19T14:08:27;36.40;46.60
37342;DHT22;58643;49.052;8.518;2022-08-19T14:10:54;35.70;47.40
37342;DHT22;58643;49.052;8.518;2022-08-19T14:13:21;35.50;46.00
37342;DHT22;58643;49.052;8.518;2022-08-19T14:15:47;34.70;47.40
37342;DHT22;58643;49.052;8.518;2022-08-19T14:18:14;34.30;47.40
37342;DHT22;58643;49.052;8.518;2022-08-19T14:20:40;34.60;47.00
37342;DHT22;58643;49.052;8.518;2022-08-19T14:23:06;34.80;46.80
37342;DHT22;58643;49.052;8.518;2022-08-19T14:25:31;35.00;46.70
37342;DHT22;58643;49.052;8.518;2022-08-19T14:27:58;34.90;45.60
37342;DHT22;58643;49.052;8.518;2022-08-19T14:30:32;35.30;45.30
37342;DHT22;58643;49.052;8.518;2022-08-19T14:33:00;34.70;46.20
37342;DHT22;58643;49.052;8.518;2022-08-19T14:35:28;33.80;46.60
37342;DHT22;58643;49.052;8.518;2022-08-19T14:37:55;32.60;48.10
37342;DHT22;58643;49.052;8.518;2022-08-19T14:40:23;31.70;48.80
37342;DHT22;58643;49.052;8.518;2022-08-19T14:42:53;32.00;49.20
37342;DHT22;58643;49.052;8.518;2022-08-19T14:45:21;31.80;48.90
37342;DHT22;58643;49.052;8.518;2022-08-19T14:47:47;31.40;49.80
37342;DHT22;58643;49.052;8.518;2022-08-19T14:50:12;31.20;50.80
37342;DHT22;58643;49.052;8.518;2022-08-19T14:52:39;31.20;50.30
37342;DHT22;58643;49.052;8.518;2022-08-19T14:55:05;31.20;50.00
37342;DHT22;58643;49.052;8.518;2022-08-19T14:57:31;31.30;49.60
37342;DHT22;58643;49.052;8.518;2022-08-19T14:59:57;31.30;49.70
37342;DHT22;58643;49.052;8.518;2022-08-19T15:02:24;31.20;50.30
37342;DHT22;58643;49.052;8.518;2022-08-19T15:04:49;31.30;49.90
37342;DHT22;58643;49.052;8.518;2022-08-19T15:07:16;31.20;50.40
37342;DHT22;58643;49.052;8.518;2022-08-19T15:09:41;30.90;50.90
37342;DHT22;58643;49.052;8.518;2022-08-19T15:12:07;30.70;50.80
37342;DHT22;58643;49.052;8.518;2022-08-19T15:14:36;30.60;51.40
37342;DHT22;58643;49.052;8.518;2022-08-19T15:17:04;30.70;51.30
37342;DHT22;58643;49.052;8.518;2022-08-19T15:19:31;31.00;51.40
37342;DHT22;58643;49.052;8.518;2022-08-19T15:21:58;31.00;51.10
37342;DHT22;58643;49.052;8.518;2022-08-19T15:24:24;30.90;50.40
37342;DHT22;58643;49.052;8.518;2022-08-19T15:26:51;30.70;51.40
37342;DHT22;58643;49.052;8.518;2022-08-19T15:29:17;30.70;50.70
37342;DHT22;58643;49.052;8.518;2022-08-19T15:31:43;30.70;51.90
37342;DHT22;58643;49.052;8.518;2022-08-19T15:34:08;30.40;52.20
37342;DHT22;58643;49.052;8.518;2022-08-19T15:36:35;30.30;52.80
37342;DHT22;58643;49.052;8.518;2022-08-19T15:39:02;30.30;52.90
37342;DHT22;58643;49.052;8.518;2022-08-19T15:41:30;30.20;52.90
37342;DHT22;58643;49.052;8.518;2022-08-19T15:43:59;29.80;52.60
37342;DHT22;58643;49.052;8.518;2022-08-19T15:46:28;30.20;52.40
37342;DHT22;58643;49.052;8.518;2022-08-19T15:48:55;30.40;52.40
37342;DHT22;58643;49.052;8.518;2022-08-19T15:51:22;30.40;51.90